CYKZ

Buttonville Municipal Airport

Toronto, Ontario, Canada
METAR CYKZ 181500Z 22008KT 7SM -SN OVC023 M08/M12 A3001 RMK SC8 SLP177
Observed Flight Rules
Jan-18 @ 15:00 UTC (38 minutes ago) Marginal Visual Flight Rules
Wind Visibility Clouds Conditions
220° at 8 knots 7 miles
  • Overcast at 2,300' AGL
  • Light Snow
Temperatures Readings
Current -8°C / 18°F
Dewpoint -12°C / 10°F
Humidity 73%
Altimeter 30.01" Hg
Pressure 1017.7 hPa
Elevation 198
METAR CYKZ 181500Z 22008KT 7SM -SN OVC023 M08/M12 A3001 RMK SC8 SLP177
Observed Flight Rules
Jan-18 @ 15:00 UTC
(38 minutes ago)
MVFR
Wind Visibility
220° at 8 knots 7 miles
Clouds
  • Overcast at 2,300' AGL
Conditions
  • Light Snow
Temperature Dewpoint
-8°C / 18°F -12°C / 10°F
Humidity Altimeter Pressure
73% 30.01" Hg 1017.7 hPa